createdAt,value
2019-02-17T00:00:05.780Z,7.70
2019-02-17T00:02:12.364Z,7.70
2019-02-17T00:04:21.181Z,7.60
2019-02-17T00:06:28.404Z,7.50
2019-02-17T00:08:56.657Z,7.40
2019-02-17T00:11:01.177Z,7.30
2019-02-17T00:13:08.877Z,7.30
2019-02-17T00:15:18.808Z,7.30
2019-02-17T00:17:28.181Z,7.30
2019-02-17T00:19:35.044Z,7.30
2019-02-17T00:21:39.660Z,7.20
2019-02-17T00:23:47.022Z,7.30
2019-02-17T00:25:54.139Z,7.20
2019-02-17T00:27:58.671Z,7.30
2019-02-17T00:30:03.255Z,7.20
2019-02-17T00:32:07.782Z,7.10
2019-02-17T00:34:13.786Z,7.10
2019-02-17T00:36:24.538Z,7.10
2019-02-17T00:38:31.861Z,7.20
2019-02-17T00:40:36.428Z,7.20
2019-02-17T00:42:41.300Z,7.20
2019-02-17T00:44:45.857Z,7.10
2019-02-17T00:46:50.423Z,7.20
2019-02-17T00:48:59.795Z,7.20
2019-02-17T00:51:04.351Z,7.20
2019-02-17T00:53:08.931Z,7.10
2019-02-17T00:55:14.829Z,7.10
2019-02-17T00:57:19.396Z,7.00
2019-02-17T00:59:24.011Z,7.00
2019-02-17T01:01:28.891Z,7.00
2019-02-17T01:03:33.439Z,7.00
2019-02-17T01:05:39.051Z,6.90
2019-02-17T01:07:45.326Z,6.80
2019-02-17T01:09:50.023Z,6.80
2019-02-17T01:11:54.672Z,6.90
2019-02-17T01:13:59.708Z,6.90
2019-02-17T01:16:04.589Z,6.80
2019-02-17T01:18:11.916Z,6.80
2019-02-17T01:20:20.977Z,6.80
2019-02-17T01:22:26.061Z,6.80
2019-02-17T01:24:33.345Z,6.80
2019-02-17T01:26:40.875Z,6.70
2019-02-17T01:28:47.479Z,6.80
2019-02-17T01:30:52.020Z,6.80
2019-02-17T01:32:56.828Z,6.80
2019-02-17T01:35:01.369Z,6.80
2019-02-17T01:37:06.234Z,6.80
2019-02-17T01:39:12.223Z,6.80
2019-02-17T01:41:16.769Z,6.80
2019-02-17T01:43:21.308Z,6.70
2019-02-17T01:45:26.329Z,6.70
2019-02-17T01:47:33.890Z,6.70
2019-02-17T01:49:38.419Z,6.70
2019-02-17T01:51:46.017Z,6.70
2019-02-17T01:53:50.789Z,6.70
2019-02-17T01:55:55.364Z,6.80
2019-02-17T01:58:00.214Z,6.90
2019-02-17T02:00:04.807Z,6.90
2019-02-17T02:02:11.183Z,6.90
2019-02-17T02:04:22.148Z,6.90
2019-02-17T02:06:26.671Z,6.90
2019-02-17T02:08:31.276Z,6.90
2019-02-17T02:10:37.469Z,6.80
2019-02-17T02:12:41.987Z,6.70
2019-02-17T02:14:46.542Z,6.50
2019-02-17T02:16:59.760Z,6.30
2019-02-17T02:19:15.065Z,6.30
2019-02-17T02:21:29.331Z,6.10
2019-02-17T02:23:46.276Z,5.90
2019-02-17T02:28:19.948Z,5.70
2019-02-17T02:30:39.789Z,5.70
2019-02-17T02:33:11.167Z,5.60
2019-02-17T02:35:20.335Z,5.60
2019-02-17T02:37:26.489Z,5.70
2019-02-17T02:39:32.378Z,5.80
2019-02-17T02:41:39.759Z,5.90
2019-02-17T02:43:44.750Z,5.90
2019-02-17T02:45:49.299Z,5.90
2019-02-17T02:47:53.916Z,5.90
2019-02-17T02:49:58.816Z,5.90
2019-02-17T02:52:03.349Z,6.00
2019-02-17T02:54:07.905Z,6.00
2019-02-17T02:56:13.639Z,6.10
2019-02-17T02:58:18.244Z,6.10
2019-02-17T03:00:24.553Z,6.20
2019-02-17T03:02:29.380Z,6.20
2019-02-17T03:04:34.020Z,6.10
2019-02-17T03:07:00.266Z,6.10
2019-02-17T03:09:06.089Z,6.10
2019-02-17T03:11:10.653Z,6.00
2019-02-17T03:13:16.374Z,6.10
2019-02-17T03:15:26.805Z,6.10
2019-02-17T03:17:31.383Z,6.10
2019-02-17T03:19:38.287Z,6.20
2019-02-17T03:21:43.663Z,6.20
2019-02-17T03:23:50.044Z,6.30
2019-02-17T03:25:54.697Z,6.30
2019-02-17T03:27:59.617Z,6.40
2019-02-17T03:30:05.853Z,6.40
2019-02-17T03:32:10.603Z,6.30
2019-02-17T03:34:15.157Z,6.40
2019-02-17T03:36:19.698Z,6.60
2019-02-17T03:38:25.873Z,6.60
2019-02-17T03:40:30.427Z,6.60
2019-02-17T03:42:35.329Z,6.60
2019-02-17T03:44:41.864Z,6.60
2019-02-17T03:46:46.176Z,6.50
2019-02-17T03:48:52.136Z,6.60
2019-02-17T03:50:56.975Z,6.60
2019-02-17T03:53:01.510Z,6.50
2019-02-17T03:55:06.335Z,6.40
2019-02-17T03:57:10.983Z,6.40
2019-02-17T03:59:15.596Z,6.50
2019-02-17T04:01:20.508Z,6.40
2019-02-17T04:03:25.147Z,6.40
2019-02-17T04:05:29.714Z,6.20
2019-02-17T04:07:34.711Z,6.00
2019-02-17T04:09:39.244Z,5.80
2019-02-17T04:11:43.840Z,5.80
2019-02-17T04:13:48.747Z,5.80
2019-02-17T04:15:53.352Z,5.80
2019-02-17T04:17:57.978Z,5.90
2019-02-17T04:20:02.775Z,5.90
2019-02-17T04:22:07.516Z,5.80
2019-02-17T04:24:14.848Z,5.80
2019-02-17T04:26:19.360Z,5.70
2019-02-17T04:28:23.889Z,5.80
2019-02-17T04:30:29.702Z,5.70
2019-02-17T04:32:34.883Z,5.70
2019-02-17T04:34:39.464Z,5.70
2019-02-17T04:36:44.167Z,5.60
2019-02-17T04:38:49.149Z,5.60
2019-02-17T04:40:56.641Z,5.70
2019-02-17T04:43:01.264Z,5.70
2019-02-17T04:45:07.315Z,5.70
2019-02-17T04:47:11.901Z,5.80
2019-02-17T04:49:16.672Z,5.80
2019-02-17T04:51:22.572Z,5.90
2019-02-17T04:53:27.183Z,5.90
2019-02-17T04:55:31.745Z,5.90
2019-02-17T04:57:36.633Z,5.80
2019-02-17T04:59:41.236Z,5.80
2019-02-17T05:01:45.761Z,5.80
2019-02-17T05:03:50.796Z,5.80
2019-02-17T05:05:55.345Z,5.90
2019-02-17T05:08:01.793Z,5.90
2019-02-17T05:10:09.782Z,5.90
2019-02-17T05:12:14.314Z,5.90
2019-02-17T05:14:18.953Z,5.90
2019-02-17T05:16:23.974Z,5.80
2019-02-17T05:18:28.502Z,5.90
2019-02-17T05:20:35.172Z,5.90
2019-02-17T05:22:40.276Z,5.90
2019-02-17T05:24:44.819Z,5.90
2019-02-17T05:26:54.104Z,5.90
2019-02-17T05:28:59.111Z,6.00
2019-02-17T05:31:03.764Z,5.90
2019-02-17T05:33:08.313Z,5.90
2019-02-17T05:35:13.925Z,5.90
2019-02-17T05:37:18.621Z,6.00
2019-02-17T05:39:24.233Z,6.00
2019-02-17T05:41:30.167Z,5.90
2019-02-17T05:43:34.736Z,5.90
2019-02-17T05:45:39.303Z,5.90
2019-02-17T05:47:44.359Z,5.80
2019-02-17T05:49:48.935Z,5.80
2019-02-17T05:51:53.477Z,5.70
2019-02-17T05:53:57.982Z,5.70
2019-02-17T05:56:02.789Z,5.60
2019-02-17T05:58:07.380Z,5.60
2019-02-17T06:00:17.635Z,5.50
2019-02-17T06:02:22.151Z,5.50
2019-02-17T06:04:26.744Z,5.50
2019-02-17T06:06:31.291Z,5.40
2019-02-17T06:08:36.091Z,5.40
2019-02-17T06:10:42.787Z,5.30
2019-02-17T06:12:47.392Z,5.20
2019-02-17T06:14:52.276Z,5.10
2019-02-17T06:16:56.813Z,5.00
2019-02-17T06:19:01.412Z,5.00
2019-02-17T06:21:06.318Z,5.10
2019-02-17T06:23:10.892Z,5.10
2019-02-17T06:25:15.465Z,5.10
2019-02-17T06:27:20.041Z,5.10
2019-02-17T06:29:24.884Z,5.10
2019-02-17T06:31:29.416Z,5.10
2019-02-17T06:33:33.915Z,4.90
2019-02-17T06:35:38.480Z,4.90
2019-02-17T06:37:43.100Z,5.10
2019-02-17T06:39:47.620Z,5.10
2019-02-17T06:41:53.440Z,5.10
2019-02-17T06:43:58.399Z,5.20
2019-02-17T06:46:03.326Z,5.40
2019-02-17T06:48:10.983Z,5.40
2019-02-17T06:50:15.805Z,5.40
2019-02-17T06:52:20.395Z,5.40
2019-02-17T06:54:24.935Z,5.50
2019-02-17T06:56:48.792Z,5.70
2019-02-17T06:58:53.327Z,5.90
2019-02-17T07:00:59.710Z,6.10
2019-02-17T07:03:04.664Z,6.30
2019-02-17T07:05:24.425Z,6.40
2019-02-17T07:07:29.111Z,6.50
2019-02-17T07:09:34.081Z,6.60
2019-02-17T07:11:38.615Z,6.60
2019-02-17T07:13:43.123Z,6.70
2019-02-17T07:15:47.706Z,6.70
2019-02-17T07:17:52.255Z,6.80
2019-02-17T07:20:00.170Z,7.00
2019-02-17T07:22:04.835Z,7.10
2019-02-17T07:24:09.421Z,7.20
2019-02-17T07:26:14.043Z,7.10
2019-02-17T07:28:20.728Z,7.00
2019-02-17T07:30:29.921Z,7.00
2019-02-17T07:32:34.461Z,6.90
2019-02-17T07:34:39.417Z,7.00
2019-02-17T07:36:44.020Z,7.00
2019-02-17T07:38:48.556Z,7.10
2019-02-17T07:40:53.131Z,7.20
2019-02-17T07:42:57.961Z,7.30
2019-02-17T07:45:03.867Z,7.30
2019-02-17T07:47:08.396Z,7.30
2019-02-17T07:49:18.656Z,7.40
2019-02-17T07:51:23.318Z,7.50
2019-02-17T07:53:27.982Z,7.50
2019-02-17T07:55:32.993Z,7.50
2019-02-17T07:57:37.548Z,7.50
2019-02-17T07:59:44.948Z,7.70
2019-02-17T08:01:49.823Z,7.70
2019-02-17T08:03:54.420Z,8.00
2019-02-17T08:05:59.003Z,8.10
2019-02-17T08:08:04.000Z,8.00
2019-02-17T08:10:08.672Z,8.10
2019-02-17T08:12:13.290Z,8.20
2019-02-17T08:14:18.152Z,8.20
2019-02-17T08:16:22.697Z,8.10
2019-02-17T08:18:27.266Z,7.90
2019-02-17T08:20:33.847Z,8.00
2019-02-17T08:22:41.802Z,8.10
2019-02-17T08:24:46.303Z,8.20
2019-02-17T08:26:51.332Z,8.30
2019-02-17T08:28:55.855Z,8.60
2019-02-17T08:35:28.386Z,9.00
2019-02-17T08:37:32.882Z,8.70
2019-02-17T08:39:38.108Z,8.60
2019-02-17T08:41:43.230Z,8.80
2019-02-17T08:43:53.548Z,9.00
2019-02-17T08:45:59.843Z,9.10
2019-02-17T08:48:04.702Z,9.40
2019-02-17T08:50:09.983Z,9.60
2019-02-17T08:52:18.278Z,9.60
2019-02-17T08:54:22.939Z,9.70
2019-02-17T08:56:29.487Z,9.70
2019-02-17T08:58:37.053Z,9.80
2019-02-17T09:00:50.052Z,9.90
2019-02-17T09:03:01.595Z,10.30
2019-02-17T09:05:09.995Z,10.30
2019-02-17T09:07:14.938Z,10.40
2019-02-17T09:09:22.453Z,10.60
2019-02-17T09:11:34.217Z,10.70
2019-02-17T09:13:38.784Z,10.70
2019-02-17T09:15:43.238Z,10.90
2019-02-17T09:18:02.203Z,11.10
2019-02-17T09:20:08.034Z,11.00
2019-02-17T09:22:12.519Z,11.10
2019-02-17T09:24:17.473Z,11.20
2019-02-17T09:26:22.599Z,11.40
2019-02-17T09:28:27.905Z,11.60
2019-02-17T09:30:33.288Z,11.50
2019-02-17T09:32:37.779Z,11.70
2019-02-17T09:34:42.702Z,11.90
2019-02-17T09:36:48.559Z,12.10
2019-02-17T09:38:53.125Z,12.10
2019-02-17T09:40:59.716Z,12.20
2019-02-17T09:43:06.759Z,12.20
2019-02-17T09:45:16.178Z,12.00
2019-02-17T09:47:24.138Z,12.20
2019-02-17T09:49:28.899Z,12.30
2019-02-17T09:51:35.729Z,12.30
2019-02-17T09:53:40.562Z,12.50
2019-02-17T09:55:45.788Z,12.70
2019-02-17T09:57:52.000Z,12.90
2019-02-17T09:59:58.729Z,12.90
2019-02-17T10:02:04.033Z,13.10
2019-02-17T10:04:15.735Z,13.10
2019-02-17T10:06:30.862Z,13.10
2019-02-17T10:08:46.364Z,13.10
2019-02-17T10:10:49.327Z,13.30
2019-02-17T10:12:57.416Z,13.30
2019-02-17T10:15:18.070Z,13.30
2019-02-17T10:17:27.034Z,13.60
2019-02-17T10:19:33.898Z,14.00
2019-02-17T10:21:39.665Z,14.10
2019-02-17T10:23:44.364Z,13.90
2019-02-17T10:25:51.795Z,14.10
2019-02-17T10:27:59.143Z,14.50
2019-02-17T10:30:06.376Z,14.90
2019-02-17T10:32:11.281Z,15.20
2019-02-17T10:34:16.400Z,15.20
2019-02-17T10:36:24.035Z,15.00
2019-02-17T10:38:30.314Z,14.80
2019-02-17T10:40:34.776Z,14.90
2019-02-17T10:42:41.586Z,14.80
2019-02-17T10:44:48.608Z,14.90
2019-02-17T10:46:53.175Z,14.90
2019-02-17T10:48:58.638Z,14.70
2019-02-17T10:51:03.164Z,14.70
2019-02-17T10:53:11.050Z,14.80
2019-02-17T10:55:18.068Z,14.90
2019-02-17T10:57:22.715Z,14.90
2019-02-17T10:59:27.631Z,14.60
2019-02-17T11:01:32.175Z,14.60
2019-02-17T11:03:39.899Z,14.60
2019-02-17T11:05:44.625Z,14.70
2019-02-17T11:07:49.441Z,14.70
2019-02-17T11:09:55.795Z,14.80
2019-02-17T11:12:00.585Z,15.00
2019-02-17T11:14:05.496Z,15.40
2019-02-17T11:16:10.023Z,15.40
2019-02-17T11:18:17.407Z,15.40
2019-02-17T11:20:23.686Z,15.30
2019-02-17T11:22:28.747Z,15.40
2019-02-17T11:24:42.925Z,15.70
2019-02-17T11:26:50.526Z,15.90
2019-02-17T11:29:00.676Z,16.20
2019-02-17T11:31:05.354Z,16.30
2019-02-17T11:33:10.659Z,16.10
2019-02-17T11:35:16.589Z,16.30
2019-02-17T11:37:24.577Z,16.40
2019-02-17T11:39:29.747Z,16.40
2019-02-17T11:41:34.202Z,16.20
2019-02-17T11:43:38.994Z,16.20
2019-02-17T11:45:44.114Z,16.00
2019-02-17T11:47:48.943Z,15.80
2019-02-17T11:49:54.943Z,15.80
2019-02-17T11:51:59.427Z,15.60
2019-02-17T11:54:03.935Z,15.70
2019-02-17T11:56:11.621Z,15.60
2019-02-17T11:58:22.830Z,15.50
2019-02-17T12:00:27.549Z,15.60
2019-02-17T12:02:36.441Z,15.70
2019-02-17T12:04:46.060Z,15.60
2019-02-17T12:06:55.905Z,15.90
2019-02-17T12:09:03.536Z,16.10
2019-02-17T12:11:08.474Z,16.30
2019-02-17T12:13:12.940Z,16.20
2019-02-17T12:15:17.757Z,16.20
2019-02-17T12:17:26.229Z,16.20
2019-02-17T12:19:42.113Z,16.00
2019-02-17T12:21:53.718Z,15.80
2019-02-17T12:24:15.438Z,15.60
2019-02-17T12:26:40.937Z,15.80
2019-02-17T12:28:53.378Z,15.90
2019-02-17T12:30:57.894Z,16.30
2019-02-17T12:33:02.618Z,16.70
2019-02-17T12:35:07.870Z,17.10
2019-02-17T12:37:21.670Z,17.20
2019-02-17T12:39:26.802Z,17.40
2019-02-17T12:41:32.346Z,17.60
2019-02-17T12:43:40.023Z,17.60
2019-02-17T12:45:47.862Z,17.80
2019-02-17T12:47:58.113Z,18.00
2019-02-17T12:50:00.267Z,17.90
2019-02-17T12:52:07.855Z,17.70
2019-02-17T12:54:13.801Z,18.00
2019-02-17T12:56:18.308Z,17.90
2019-02-17T12:58:30.215Z,18.00
2019-02-17T13:00:36.755Z,18.30
2019-02-17T13:02:41.292Z,18.40
2019-02-17T13:04:54.551Z,18.50
2019-02-17T13:07:06.287Z,18.60
2019-02-17T13:09:10.800Z,18.70
2019-02-17T13:11:18.746Z,18.70
2019-02-17T13:13:23.373Z,18.70
2019-02-17T13:15:32.058Z,18.80
2019-02-17T13:17:40.799Z,19.10
2019-02-17T13:19:49.837Z,18.70
2019-02-17T13:21:54.403Z,18.50
2019-02-17T13:24:02.647Z,18.60
2019-02-17T13:26:10.598Z,18.60
2019-02-17T13:28:24.937Z,18.80
2019-02-17T13:30:30.156Z,18.90
2019-02-17T13:32:37.447Z,19.10
2019-02-17T13:34:45.106Z,18.80
2019-02-17T13:36:52.650Z,18.80
2019-02-17T13:38:57.436Z,18.70
2019-02-17T13:41:05.296Z,18.50
2019-02-17T13:43:10.451Z,18.50
2019-02-17T13:45:22.118Z,18.50
2019-02-17T13:47:26.743Z,18.40
2019-02-17T13:49:31.894Z,18.20
2019-02-17T13:51:36.348Z,18.30
2019-02-17T13:53:40.931Z,18.60
2019-02-17T13:55:45.734Z,19.00
2019-02-17T13:57:52.308Z,19.10
2019-02-17T13:59:56.862Z,19.20
2019-02-17T14:02:03.118Z,19.30
2019-02-17T14:04:08.484Z,19.20
2019-02-17T14:06:13.308Z,19.20
2019-02-17T14:08:21.552Z,19.40
2019-02-17T14:10:35.035Z,19.40
2019-02-17T14:12:45.151Z,19.20
2019-02-17T14:14:51.945Z,19.00
2019-02-17T14:16:56.449Z,19.00
2019-02-17T14:19:04.245Z,19.00
2019-02-17T14:21:16.110Z,19.30
2019-02-17T14:23:20.595Z,19.50
2019-02-17T14:25:25.451Z,19.20
2019-02-17T14:27:36.392Z,18.90
2019-02-17T14:29:43.985Z,18.90
2019-02-17T14:31:48.743Z,18.90
2019-02-17T14:33:58.785Z,18.80
2019-02-17T14:36:10.130Z,18.60
2019-02-17T14:38:22.031Z,18.20
2019-02-17T14:40:24.166Z,18.30
2019-02-17T14:42:28.687Z,18.20
2019-02-17T14:44:43.992Z,18.20
2019-02-17T14:46:53.019Z,18.20
2019-02-17T14:48:58.682Z,18.30
2019-02-17T14:55:28.062Z,18.30
2019-02-17T14:57:32.553Z,18.40
2019-02-17T14:59:40.624Z,18.60
2019-02-17T15:01:48.097Z,18.50
2019-02-17T15:04:08.790Z,18.70
2019-02-17T15:06:11.930Z,18.80
2019-02-17T15:08:19.219Z,18.80
2019-02-17T15:10:24.421Z,18.70
2019-02-17T15:12:35.991Z,18.90
2019-02-17T15:14:43.439Z,19.20
2019-02-17T15:16:48.861Z,19.40
2019-02-17T15:18:58.402Z,19.50
2019-02-17T15:21:10.427Z,19.50
2019-02-17T15:23:18.252Z,19.50
2019-02-17T15:25:28.871Z,19.60
2019-02-17T15:27:34.229Z,19.80
2019-02-17T15:29:39.395Z,20.00
2019-02-17T15:31:53.074Z,20.20
2019-02-17T15:34:01.625Z,20.20
2019-02-17T15:36:15.810Z,20.20
2019-02-17T15:38:24.144Z,20.30
2019-02-17T15:40:31.140Z,20.30
2019-02-17T15:42:43.346Z,20.30
2019-02-17T15:44:48.020Z,20.40
2019-02-17T15:46:54.210Z,20.60
2019-02-17T15:49:01.318Z,20.50
2019-02-17T15:51:06.775Z,20.60
2019-02-17T15:53:14.641Z,20.60
2019-02-17T15:55:19.150Z,20.50
2019-02-17T15:57:28.598Z,20.30
2019-02-17T15:59:34.410Z,20.40
2019-02-17T16:01:52.890Z,20.30
2019-02-17T16:04:00.463Z,20.30
2019-02-17T16:06:04.970Z,20.30
2019-02-17T16:08:12.730Z,20.30
2019-02-17T16:10:19.237Z,20.20
2019-02-17T16:12:28.926Z,20.20
2019-02-17T16:14:36.095Z,20.10
2019-02-17T16:16:45.499Z,20.00
2019-02-17T16:19:02.795Z,19.80
2019-02-17T16:21:10.762Z,19.80
2019-02-17T16:23:15.272Z,20.00
2019-02-17T16:25:22.510Z,20.10
2019-02-17T16:27:30.336Z,19.90
2019-02-17T16:29:37.624Z,19.80
2019-02-17T16:31:42.203Z,19.60
2019-02-17T16:33:49.346Z,19.30
2019-02-17T16:35:53.926Z,18.90
2019-02-17T16:37:58.784Z,18.30
2019-02-17T16:40:04.823Z,17.90
2019-02-17T16:42:10.393Z,17.50
2019-02-17T16:44:17.923Z,17.30
2019-02-17T16:46:27.250Z,17.10
2019-02-17T16:48:34.180Z,16.90
2019-02-17T16:50:38.890Z,16.60
2019-02-17T16:52:49.405Z,16.40
2019-02-17T16:54:59.656Z,16.20
2019-02-17T16:57:06.126Z,16.00
2019-02-17T16:59:12.447Z,15.90
2019-02-17T17:01:35.543Z,15.80
2019-02-17T17:03:34.609Z,15.60
2019-02-17T17:05:39.533Z,15.40
2019-02-17T17:08:06.221Z,15.30
2019-02-17T17:10:01.956Z,15.30
2019-02-17T17:12:07.148Z,15.20
2019-02-17T17:14:12.538Z,15.00
2019-02-17T17:16:19.480Z,15.00
2019-02-17T17:18:28.344Z,14.90
2019-02-17T17:20:38.541Z,14.80
2019-02-17T17:22:46.200Z,14.70
2019-02-17T17:24:52.032Z,14.60
2019-02-17T17:26:56.519Z,14.50
2019-02-17T17:29:04.258Z,14.40
2019-02-17T17:31:13.031Z,14.40
2019-02-17T17:33:20.656Z,14.30
2019-02-17T17:35:25.246Z,14.20
2019-02-17T17:37:36.314Z,14.10
2019-02-17T17:39:41.080Z,14.10
2019-02-17T17:41:48.215Z,14.10
2019-02-17T17:43:53.047Z,14.00
2019-02-17T17:45:57.682Z,13.90
2019-02-17T17:48:02.199Z,13.80
2019-02-17T17:50:10.011Z,13.60
2019-02-17T17:52:23.675Z,13.40
2019-02-17T17:54:28.231Z,12.90
2019-02-17T17:56:38.032Z,12.40
2019-02-17T17:58:54.647Z,12.10
2019-02-17T18:00:59.833Z,12.10
2019-02-17T18:03:07.604Z,12.20
2019-02-17T18:05:15.555Z,12.30
2019-02-17T18:07:20.125Z,12.50
2019-02-17T18:09:25.910Z,12.70
2019-02-17T18:11:31.939Z,12.80
2019-02-17T18:13:36.414Z,12.90
2019-02-17T18:15:48.119Z,13.10
2019-02-17T18:17:55.786Z,13.20
2019-02-17T18:20:00.372Z,13.10
2019-02-17T18:22:08.573Z,12.90
2019-02-17T18:24:18.959Z,12.50
2019-02-17T18:26:23.591Z,11.90
2019-02-17T18:28:28.068Z,11.70
2019-02-17T18:30:34.594Z,11.90
2019-02-17T18:32:40.903Z,12.10
2019-02-17T18:34:50.321Z,12.10
2019-02-17T18:36:54.815Z,12.00
2019-02-17T18:38:59.432Z,11.90
2019-02-17T18:41:10.996Z,11.90
2019-02-17T18:43:15.564Z,11.90
2019-02-17T18:45:29.198Z,11.90
2019-02-17T18:47:38.032Z,11.90
2019-02-17T18:49:49.096Z,11.80
2019-02-17T18:51:54.396Z,11.70
2019-02-17T18:54:03.088Z,11.70
2019-02-17T18:56:21.882Z,11.80
2019-02-17T18:58:34.261Z,11.90
2019-02-17T19:00:41.966Z,11.80
2019-02-17T19:02:56.931Z,11.80
2019-02-17T19:05:10.360Z,11.80
2019-02-17T19:07:22.786Z,11.70
2019-02-17T19:09:29.598Z,11.60
2019-02-17T19:11:35.369Z,11.60
2019-02-17T19:13:48.330Z,11.60
2019-02-17T19:16:10.277Z,11.60
2019-02-17T19:18:22.480Z,11.60
2019-02-17T19:20:32.943Z,11.60
2019-02-17T19:22:43.551Z,11.50
2019-02-17T19:24:48.397Z,11.50
2019-02-17T19:26:53.187Z,11.50
2019-02-17T19:29:00.897Z,11.20
2019-02-17T19:31:06.551Z,11.10
2019-02-17T19:33:18.775Z,11.00
2019-02-17T19:35:23.549Z,11.00
2019-02-17T19:37:28.014Z,11.00
2019-02-17T19:39:32.868Z,11.00
2019-02-17T19:41:37.361Z,11.00
2019-02-17T19:43:46.723Z,11.00
2019-02-17T19:45:51.592Z,11.10
2019-02-17T19:47:56.080Z,11.10
2019-02-17T19:50:00.555Z,11.10
2019-02-17T19:52:07.878Z,11.10
2019-02-17T19:54:12.316Z,11.20
2019-02-17T19:56:16.805Z,11.20
2019-02-17T19:58:21.844Z,11.20
2019-02-17T20:00:30.787Z,11.10
2019-02-17T20:02:47.275Z,11.10
2019-02-17T20:05:06.639Z,11.10
2019-02-17T20:07:11.133Z,10.80
2019-02-17T20:09:19.660Z,10.50
2019-02-17T20:11:38.852Z,10.30
2019-02-17T20:13:43.379Z,10.00
2019-02-17T20:15:51.138Z,9.80
2019-02-17T20:20:25.266Z,9.80
2019-02-17T20:22:41.472Z,10.00
2019-02-17T20:25:00.048Z,10.10
2019-02-17T20:47:11.919Z,9.70
2019-02-17T20:52:15.251Z,9.80
2019-02-17T20:54:31.991Z,9.80
2019-02-17T21:37:33.849Z,9.30
2019-02-17T21:51:31.676Z,9.20
2019-02-17T21:53:27.232Z,9.50
2019-02-17T21:58:01.109Z,9.40
2019-02-17T22:00:17.045Z,9.30
2019-02-17T22:02:22.555Z,9.20
2019-02-17T22:04:46.603Z,9.30
2019-02-17T22:07:02.900Z,9.40
2019-02-17T22:20:32.022Z,9.80
2019-02-17T22:26:09.856Z,10.00
2019-02-17T22:29:08.154Z,9.90
2019-02-17T22:31:12.666Z,9.90
2019-02-17T22:33:31.718Z,9.90
2019-02-17T22:36:01.369Z,9.70
2019-02-17T22:43:44.396Z,9.50
2019-02-17T22:57:50.312Z,9.40
2019-02-17T23:00:51.847Z,9.40
2019-02-17T23:03:15.774Z,9.40
2019-02-17T23:05:39.459Z,9.30
2019-02-17T23:19:12.978Z,9.30
2019-02-17T23:21:50.536Z,9.30
2019-02-17T23:46:16.605Z,9.20
2019-02-17T23:48:40.263Z,9.30
2019-02-17T23:50:56.518Z,9.30
